Time;durP1;ratioP1;P1;durP2;ratioP2;P2;SDS_P1;SDS_P2;PMS_P1;PMS_P2;Temp;Humidity;BMP_temperature;BMP_pressure;BME280_temperature;BME280_humidity;BME280_pressure;Samples;Min_cycle;Max_cycle;Signal;HPM_P1;HPM_P2
2021/08/30 00:01:09;;;;;;;25.17;22.47;;;16.80;99.90;;;;;;5031692;28;20465;-67
2021/08/30 00:03:35;;;;;;;31.13;21.73;;;16.80;99.90;;;;;;5031686;28;20476;-65
2021/08/30 00:06:02;;;;;;;25.53;22.83;;;16.80;99.90;;;;;;5031792;28;20449;-65
2021/08/30 00:08:29;;;;;;;23.10;20.67;;;16.80;99.90;;;;;;5031667;28;20515;-65
2021/08/30 00:10:56;;;;;;;25.50;22.00;;;16.80;99.90;;;;;;5030732;28;20468;-66
2021/08/30 00:13:23;;;;;;;26.20;22.60;;;16.70;99.90;;;;;;5031613;28;20440;-66
2021/08/30 00:15:49;;;;;;;26.60;23.87;;;16.70;99.90;;;;;;5031661;28;20441;-65
2021/08/30 00:18:17;;;;;;;23.53;20.37;;;16.70;99.90;;;;;;5031659;28;20834;-66
2021/08/30 00:20:44;;;;;;;24.70;22.30;;;16.70;99.90;;;;;;5031437;28;20476;-66
2021/08/30 00:23:11;;;;;;;24.90;21.33;;;16.70;99.90;;;;;;5031249;28;20452;-65
2021/08/30 00:25:38;;;;;;;23.37;20.67;;;16.70;99.90;;;;;;5031551;28;20445;-65
2021/08/30 00:28:04;;;;;;;23.60;21.13;;;16.70;99.90;;;;;;5031495;28;20965;-66
2021/08/30 00:30:31;;;;;;;24.70;22.07;;;16.70;99.90;;;;;;5031476;28;20465;-65
2021/08/30 00:32:58;;;;;;;27.77;21.83;;;16.70;99.90;;;;;;5031313;28;20799;-66
2021/08/30 00:35:26;;;;;;;27.80;20.60;;;16.70;99.90;;;;;;5031483;28;20445;-66
2021/08/30 00:37:53;;;;;;;25.20;20.50;;;16.70;99.90;;;;;;5031461;28;20468;-66
2021/08/30 00:40:19;;;;;;;24.37;20.23;;;16.70;99.90;;;;;;5031465;28;20469;-65
2021/08/30 00:42:47;;;;;;;27.57;23.60;;;16.70;99.90;;;;;;5031266;28;20936;-66
2021/08/30 00:45:14;;;;;;;30.73;23.13;;;16.70;99.90;;;;;;5031451;28;20472;-65
2021/08/30 00:47:44;;;;;;;25.37;21.67;;;16.70;99.90;;;;;;5031568;28;20444;-66
2021/08/30 00:50:13;;;;;;;25.10;21.97;;;16.70;99.90;;;;;;5031425;28;20441;-65
2021/08/30 00:52:42;;;;;;;27.53;22.97;;;16.70;99.90;;;;;;5031120;28;20444;-66
2021/08/30 00:55:10;;;;;;;25.17;22.43;;;16.70;99.90;;;;;;5031342;28;20441;-66
2021/08/30 00:57:37;;;;;;;26.17;22.60;;;16.70;99.90;;;;;;5031403;28;20543;-66
2021/08/30 01:00:04;;;;;;;25.77;21.77;;;16.70;99.90;;;;;;5031099;28;20449;-66
2021/08/30 01:02:31;;;;;;;26.60;22.50;;;16.70;99.90;;;;;;5031013;28;20926;-66
2021/08/30 01:04:58;;;;;;;26.40;21.93;;;16.70;99.90;;;;;;5031232;28;20480;-66
2021/08/30 01:07:36;;;;;;;34.47;23.10;;;16.70;99.90;;;;;;5031313;28;20800;-65
2021/08/30 01:10:11;;;;;;;26.67;23.00;;;16.70;99.90;;;;;;5031184;28;20484;-65
2021/08/30 01:12:44;;;;;;;26.13;22.30;;;16.70;99.90;;;;;;5030990;28;20440;-66
2021/08/30 01:15:15;;;;;;;30.03;22.00;;;16.70;99.90;;;;;;5031070;28;20449;-65
2021/08/30 01:17:45;;;;;;;28.10;25.17;;;16.60;99.90;;;;;;5031171;28;20445;-66
2021/08/30 01:20:19;;;;;;;24.73;21.90;;;16.70;99.90;;;;;;5031028;28;20441;-65
2021/08/30 01:22:48;;;;;;;32.50;23.53;;;16.70;99.90;;;;;;5033009;28;20456;-65
2021/08/30 01:25:21;;;;;;;26.63;22.13;;;16.70;99.90;;;;;;5034587;28;20484;-66
2021/08/30 01:27:50;;;;;;;22.80;20.40;;;16.70;99.90;;;;;;5034733;28;20472;-65
2021/08/30 01:30:20;;;;;;;27.73;24.63;;;16.70;99.90;;;;;;5034624;28;20453;-66
2021/08/30 01:32:51;;;;;;;24.90;22.23;;;16.60;99.90;;;;;;5034423;28;20539;-66
2021/08/30 01:35:20;;;;;;;26.43;21.57;;;16.70;99.90;;;;;;5034546;28;20444;-66
2021/08/30 01:37:50;;;;;;;27.67;24.87;;;16.70;99.90;;;;;;5034533;28;20445;-65
2021/08/30 01:40:20;;;;;;;24.13;21.53;;;16.70;99.90;;;;;;5034426;28;20452;-66
2021/08/30 01:42:50;;;;;;;25.90;20.97;;;16.60;99.90;;;;;;5034516;28;20467;-66
2021/08/30 01:45:20;;;;;;;23.87;21.23;;;16.60;99.90;;;;;;5034416;28;20924;-65
2021/08/30 01:47:50;;;;;;;26.30;22.00;;;16.60;99.90;;;;;;5034336;28;20965;-66
2021/08/30 01:50:20;;;;;;;25.07;21.10;;;16.60;99.90;;;;;;5034145;28;20450;-66
2021/08/30 01:52:48;;;;;;;24.50;21.80;;;16.60;99.90;;;;;;5034065;28;20449;-66
2021/08/30 01:55:23;;;;;;;26.70;24.10;;;16.60;99.90;;;;;;5034445;28;20448;-66
2021/08/30 02:00:44;;;;;;;23.47;20.83;;;16.60;99.90;;;;;;5034181;28;20444;-66
2021/08/30 02:03:13;;;;;;;29.60;21.73;;;16.60;99.90;;;;;;5033865;28;20788;-66
2021/08/30 02:05:41;;;;;;;28.27;22.70;;;16.60;99.90;;;;;;5033895;28;20579;-66
2021/08/30 02:08:08;;;;;;;30.07;24.67;;;16.60;99.90;;;;;;5033988;28;20456;-66
2021/08/30 02:10:35;;;;;;;29.57;22.90;;;16.60;99.90;;;;;;5034045;28;20457;-65
2021/08/30 02:13:02;;;;;;;27.70;24.80;;;16.60;99.90;;;;;;5033685;28;20452;-66
2021/08/30 02:15:28;;;;;;;31.60;22.73;;;16.60;99.90;;;;;;5033978;28;20455;-66
2021/08/30 02:18:01;;;;;;;27.67;24.50;;;16.60;99.90;;;;;;5033946;28;20453;-66
2021/08/30 02:20:30;;;;;;;27.90;23.87;;;16.60;99.90;;;;;;5033508;28;20481;-65
2021/08/30 02:23:02;;;;;;;27.23;23.23;;;16.60;99.90;;;;;;5033598;28;20452;-66
2021/08/30 02:25:31;;;;;;;28.17;23.70;;;16.60;99.90;;;;;;5033687;28;20477;-66
2021/08/30 02:28:00;;;;;;;27.67;23.17;;;16.60;99.90;;;;;;5033848;28;20469;-66
2021/08/30 02:30:30;;;;;;;33.70;23.80;;;16.60;99.90;;;;;;5033470;28;20469;-66
2021/08/30 02:33:05;;;;;;;31.53;23.73;;;16.60;99.90;;;;;;5032956;28;20805;-66
2021/08/30 02:35:36;;;;;;;28.13;24.50;;;16.60;99.90;;;;;;5033261;28;20449;-66
2021/08/30 02:38:03;;;;;;;28.20;23.97;;;16.60;99.90;;;;;;5033525;28;20512;-66
2021/08/30 02:40:31;;;;;;;26.40;23.70;;;16.60;99.90;;;;;;5033410;28;20461;-66
2021/08/30 02:43:00;;;;;;;26.80;23.87;;;16.60;99.90;;;;;;5033387;28;20448;-65
2021/08/30 02:45:28;;;;;;;27.73;24.70;;;16.60;99.90;;;;;;5033172;28;20481;-65
2021/08/30 02:47:57;;;;;;;29.33;24.87;;;16.60;99.90;;;;;;5033278;28;20448;-65
2021/08/30 02:50:25;;;;;;;27.43;24.53;;;16.50;99.90;;;;;;5033046;28;20457;-66
2021/08/30 02:52:54;;;;;;;26.80;23.90;;;16.60;99.90;;;;;;5032895;28;20441;-66
2021/08/30 02:55:21;;;;;;;26.67;23.47;;;16.60;99.90;;;;;;5032966;28;20453;-65
2021/08/30 02:57:49;;;;;;;29.80;23.90;;;16.60;99.90;;;;;;5033101;28;20480;-66
2021/08/30 03:00:17;;;;;;;26.10;23.40;;;16.50;99.90;;;;;;5032847;28;20468;-66
2021/08/30 03:02:44;;;;;;;26.60;23.13;;;16.50;99.90;;;;;;5032734;28;20934;-66
2021/08/30 03:05:12;;;;;;;27.73;23.97;;;16.50;99.90;;;;;;5032853;28;20481;-65
2021/08/30 03:07:41;;;;;;;25.53;22.90;;;16.50;99.90;;;;;;5032949;28;20452;-66
2021/08/30 03:10:09;;;;;;;25.70;22.90;;;16.50;99.90;;;;;;5032739;28;20854;-66
2021/08/30 03:12:40;;;;;;;27.90;24.90;;;16.50;99.90;;;;;;5032596;28;20453;-65
2021/08/30 03:15:09;;;;;;;26.60;23.63;;;16.50;99.90;;;;;;5032807;28;20441;-66
2021/08/30 03:17:37;;;;;;;28.07;22.10;;;16.50;99.90;;;;;;5032550;28;20467;-66
2021/08/30 03:20:05;;;;;;;30.90;26.30;;;16.50;99.90;;;;;;5032352;28;20464;-66
2021/08/30 03:22:33;;;;;;;31.80;24.63;;;16.50;99.90;;;;;;5032460;28;20452;-66
2021/08/30 03:25:02;;;;;;;28.40;25.40;;;16.50;99.90;;;;;;5032446;28;20552;-66
2021/08/30 03:27:31;;;;;;;29.27;25.93;;;16.50;99.90;;;;;;5032496;28;20441;-66
2021/08/30 03:29:59;;;;;;;29.40;26.27;;;16.50;99.90;;;;;;5032438;28;20448;-65
2021/08/30 03:32:26;;;;;;;33.30;26.57;;;16.50;99.90;;;;;;5032045;28;20441;-66
2021/08/30 03:34:53;;;;;;;30.93;25.90;;;16.50;99.90;;;;;;5032333;28;20445;-65
2021/08/30 03:37:20;;;;;;;29.33;26.20;;;16.50;99.90;;;;;;5032218;28;20449;-65
2021/08/30 03:39:47;;;;;;;28.37;24.57;;;16.40;99.90;;;;;;5032187;28;20452;-64
2021/08/30 03:42:14;;;;;;;30.50;24.80;;;16.40;99.90;;;;;;5031884;28;20476;-66
2021/08/30 03:44:42;;;;;;;31.00;25.73;;;16.40;99.90;;;;;;5031809;28;20485;-64
2021/08/30 03:47:10;;;;;;;30.23;26.97;;;16.40;99.90;;;;;;5031978;28;20444;-65
2021/08/30 03:49:37;;;;;;;31.47;25.67;;;16.40;99.90;;;;;;5032130;28;20445;-65
2021/08/30 03:52:06;;;;;;;30.13;24.50;;;16.40;99.90;;;;;;5031679;28;20496;-66
2021/08/30 03:54:33;;;;;;;28.23;25.23;;;16.40;99.90;;;;;;5032054;28;20444;-65
2021/08/30 03:57:00;;;;;;;29.50;23.90;;;16.40;99.90;;;;;;5031941;28;20429;-65
2021/08/30 03:59:33;;;;;;;33.13;29.70;;;16.40;99.90;;;;;;5031855;28;20441;-66
2021/08/30 04:02:02;;;;;;;30.57;24.73;;;16.40;99.90;;;;;;5031603;28;20467;-64
2021/08/30 04:04:29;;;;;;;29.77;25.63;;;16.40;99.90;;;;;;5031730;28;20440;-65
2021/08/30 04:06:59;;;;;;;28.37;24.27;;;16.30;99.90;;;;;;5031729;28;20811;-64
2021/08/30 04:09:27;;;;;;;25.93;23.20;;;16.30;99.90;;;;;;5031833;28;20445;-65
2021/08/30 04:11:55;;;;;;;26.40;23.40;;;16.30;99.90;;;;;;5031426;28;20484;-65
2021/08/30 04:14:22;;;;;;;26.80;24.00;;;16.30;99.90;;;;;;5031612;28;20444;-65
2021/08/30 04:16:49;;;;;;;31.50;27.90;;;16.40;99.90;;;;;;5031596;28;20449;-64
2021/08/30 04:19:18;;;;;;;25.87;23.17;;;16.40;99.90;;;;;;5031658;28;20532;-65
2021/08/30 04:21:44;;;;;;;28.53;24.30;;;16.40;99.90;;;;;;5031111;28;20862;-64
2021/08/30 04:24:11;;;;;;;29.00;22.77;;;16.40;99.90;;;;;;5031588;28;20449;-66
2021/08/30 04:26:38;;;;;;;32.97;25.33;;;16.40;99.90;;;;;;5031402;28;20483;-65
2021/08/30 04:29:05;;;;;;;29.10;26.10;;;16.40;99.90;;;;;;5031509;28;20819;-65
2021/08/30 04:31:32;;;;;;;28.73;25.70;;;16.40;99.90;;;;;;5031167;28;20465;-66
2021/08/30 04:33:59;;;;;;;24.97;22.47;;;16.40;99.90;;;;;;5031529;28;20452;-65
2021/08/30 04:36:27;;;;;;;34.20;26.27;;;16.40;99.90;;;;;;5031444;28;20443;-65
2021/08/30 04:38:54;;;;;;;28.67;24.63;;;16.40;99.90;;;;;;5031507;28;20448;-65
2021/08/30 04:41:21;;;;;;;26.87;23.97;;;16.40;99.90;;;;;;5031079;28;21001;-66
2021/08/30 04:43:48;;;;;;;28.60;25.60;;;16.50;99.90;;;;;;5031233;28;20467;-65
2021/08/30 04:46:14;;;;;;;29.77;26.30;;;16.50;99.90;;;;;;5031317;28;20485;-66
2021/08/30 04:48:41;;;;;;;28.73;24.07;;;16.50;99.90;;;;;;5031446;28;20444;-65
2021/08/30 04:51:08;;;;;;;29.47;24.67;;;16.50;99.90;;;;;;5030924;28;20460;-65
2021/08/30 04:53:36;;;;;;;30.27;24.17;;;16.50;99.90;;;;;;5031314;28;20468;-66
2021/08/30 04:56:03;;;;;;;28.30;24.57;;;16.50;99.90;;;;;;5031287;28;20441;-65
2021/08/30 04:58:29;;;;;;;30.50;25.40;;;16.50;99.90;;;;;;5034757;28;20441;-66
2021/08/30 05:00:56;;;;;;;25.90;22.40;;;16.60;99.90;;;;;;5034966;28;20834;-65
2021/08/30 05:03:23;;;;;;;27.30;24.50;;;16.50;99.90;;;;;;5035072;28;20503;-65
2021/08/30 05:05:49;;;;;;;26.60;22.43;;;16.50;99.90;;;;;;5035039;28;20894;-66
2021/08/30 05:08:18;;;;;;;28.83;24.77;;;16.50;99.90;;;;;;5035138;28;20449;-64
2021/08/30 05:10:46;;;;;;;26.63;23.67;;;16.50;99.90;;;;;;5034823;28;20461;-66
2021/08/30 05:13:12;;;;;;;27.20;24.33;;;16.60;99.90;;;;;;5034709;28;20864;-66
2021/08/30 05:15:39;;;;;;;28.73;22.63;;;16.60;99.90;;;;;;5035017;28;20440;-65
2021/08/30 05:18:06;;;;;;;28.00;23.17;;;16.60;99.90;;;;;;5034989;28;20467;-65
2021/08/30 05:20:32;;;;;;;27.67;22.67;;;16.60;99.90;;;;;;5034599;28;20468;-66
2021/08/30 05:22:59;;;;;;;27.30;22.90;;;16.60;99.90;;;;;;5035196;28;20455;-65
2021/08/30 05:25:26;;;;;;;29.57;26.77;;;16.60;99.90;;;;;;5034560;28;20480;-64
2021/08/30 05:27:54;;;;;;;25.40;22.70;;;16.70;99.90;;;;;;5034596;28;20451;-60
2021/08/30 05:30:21;;;;;;;25.30;22.80;;;16.70;99.90;;;;;;5034157;28;20457;-63
2021/08/30 05:32:47;;;;;;;26.80;23.37;;;16.70;99.90;;;;;;5034175;28;20452;-64
2021/08/30 05:35:14;;;;;;;25.07;22.47;;;16.70;99.90;;;;;;5034465;28;20599;-64
2021/08/30 05:37:41;;;;;;;24.80;22.10;;;16.70;99.90;;;;;;5034472;28;20931;-63
2021/08/30 05:40:09;;;;;;;26.10;21.77;;;16.80;99.90;;;;;;5034561;28;20452;-64
2021/08/30 05:42:36;;;;;;;25.37;22.60;;;16.80;99.90;;;;;;5034103;28;20449;-64
2021/08/30 05:45:04;;;;;;;27.60;21.27;;;16.80;99.90;;;;;;5034171;28;20767;-64
2021/08/30 05:47:31;;;;;;;23.50;21.00;;;16.90;99.90;;;;;;5034350;28;20448;-65
2021/08/30 05:49:57;;;;;;;27.47;21.43;;;16.90;99.90;;;;;;5034230;28;20441;-64
2021/08/30 05:52:25;;;;;;;27.40;24.40;;;17.00;99.90;;;;;;5033894;28;20447;-65
2021/08/30 05:54:52;;;;;;;25.30;22.70;;;17.10;99.90;;;;;;5034164;28;20444;-65
2021/08/30 05:57:18;;;;;;;23.90;21.37;;;17.20;99.90;;;;;;5034136;28;20965;-64
2021/08/30 05:59:45;;;;;;;23.90;21.10;;;17.30;99.90;;;;;;5033895;28;20496;-64
2021/08/30 06:02:13;;;;;;;23.27;20.53;;;17.30;99.90;;;;;;5033851;28;20473;-62
2021/08/30 06:04:40;;;;;;;24.50;21.90;;;17.30;99.90;;;;;;5033964;28;20452;-64
2021/08/30 06:07:06;;;;;;;27.23;24.33;;;17.30;99.90;;;;;;5033835;28;20480;-65
2021/08/30 06:09:33;;;;;;;26.77;23.47;;;17.30;99.90;;;;;;5033837;28;20452;-65
2021/08/30 06:12:00;;;;;;;27.70;22.33;;;17.40;99.90;;;;;;5033714;28;20488;-65
2021/08/30 06:14:27;;;;;;;23.77;21.27;;;17.40;99.90;;;;;;5033769;28;20441;-65
2021/08/30 06:16:53;;;;;;;24.07;21.47;;;17.30;99.90;;;;;;5033621;28;20803;-65
2021/08/30 06:19:21;;;;;;;24.67;19.63;;;17.30;99.90;;;;;;5033744;28;20445;-64
2021/08/30 06:21:48;;;;;;;25.10;22.10;;;17.30;99.90;;;;;;5033175;28;20476;-65
2021/08/30 06:24:15;;;;;;;22.40;20.10;;;17.30;99.90;;;;;;5033658;28;20935;-64
2021/08/30 06:26:42;;;;;;;22.73;20.40;;;17.40;99.90;;;;;;5033444;28;20492;-65
2021/08/30 06:29:08;;;;;;;26.50;21.90;;;17.40;99.90;;;;;;5033430;28;20441;-63
2021/08/30 06:31:35;;;;;;;24.37;21.87;;;17.50;99.90;;;;;;5033219;28;20823;-64
2021/08/30 06:34:03;;;;;;;26.67;23.87;;;17.60;99.90;;;;;;5033536;28;20934;-64
2021/08/30 06:36:31;;;;;;;25.37;21.30;;;17.80;99.90;;;;;;5033306;28;20869;-64
2021/08/30 06:38:57;;;;;;;25.80;23.27;;;17.90;99.90;;;;;;5033373;28;20449;-63
2021/08/30 06:41:24;;;;;;;27.23;23.50;;;17.70;99.90;;;;;;5032981;28;20849;-64
2021/08/30 06:43:51;;;;;;;26.80;24.30;;;17.60;99.90;;;;;;5033107;28;20954;-65
2021/08/30 06:46:17;;;;;;;26.30;23.60;;;17.50;99.90;;;;;;5033159;28;20488;-64
2021/08/30 06:48:44;;;;;;;26.60;22.90;;;17.40;99.90;;;;;;5033091;28;20442;-64
2021/08/30 06:51:11;;;;;;;25.33;22.83;;;17.40;99.90;;;;;;5032858;28;20472;-65
2021/08/30 06:53:40;;;;;;;26.27;23.17;;;17.30;99.90;;;;;;5033054;28;20826;-65
2021/08/30 06:56:07;;;;;;;23.13;20.80;;;17.40;99.90;;;;;;5032912;28;20481;-63
2021/08/30 06:58:33;;;;;;;25.43;22.73;;;17.40;99.90;;;;;;5032899;28;20449;-65
2021/08/30 07:01:00;;;;;;;24.73;22.17;;;17.50;99.90;;;;;;5032669;28;20461;-63
2021/08/30 07:03:27;;;;;;;26.27;23.60;;;17.60;99.90;;;;;;5032798;28;20452;-64
2021/08/30 07:05:54;;;;;;;23.97;21.47;;;17.60;99.90;;;;;;5032875;28;20601;-65
2021/08/30 07:08:20;;;;;;;27.20;23.30;;;17.60;99.90;;;;;;5032768;28;20456;-64
2021/08/30 07:10:48;;;;;;;27.87;22.10;;;17.70;99.90;;;;;;5032565;28;20842;-65
2021/08/30 07:13:15;;;;;;;25.73;22.77;;;17.80;99.90;;;;;;5032452;28;20449;-64
2021/08/30 07:15:42;;;;;;;25.30;22.80;;;18.00;99.90;;;;;;5032612;28;20437;-65
2021/08/30 07:18:09;;;;;;;23.63;20.83;;;18.10;99.90;;;;;;5032666;28;20460;-64
2021/08/30 07:20:36;;;;;;;24.70;20.53;;;18.10;99.90;;;;;;5031866;28;20480;-63
2021/08/30 07:23:02;;;;;;;24.87;21.60;;;18.00;99.90;;;;;;5032300;28;20451;-65
2021/08/30 07:25:29;;;;;;;24.00;20.97;;;18.00;99.90;;;;;;5032130;28;20946;-63
2021/08/30 07:27:57;;;;;;;22.83;20.53;;;18.10;99.90;;;;;;5032395;28;20471;-64
2021/08/30 07:30:24;;;;;;;23.80;21.30;;;18.30;99.90;;;;;;5032267;28;20465;-64
2021/08/30 07:32:51;;;;;;;23.97;20.10;;;18.50;99.90;;;;;;5032032;28;20965;-64
2021/08/30 07:35:18;;;;;;;21.70;19.40;;;18.50;99.90;;;;;;5032317;28;20849;-64
2021/08/30 07:37:45;;;;;;;23.57;21.20;;;18.60;99.90;;;;;;5032185;28;20445;-64
2021/08/30 07:40:13;;;;;;;27.47;22.60;;;18.50;99.90;;;;;;5032124;28;20449;-64
2021/08/30 07:42:39;;;;;;;25.73;21.50;;;18.50;99.90;;;;;;5031892;28;20449;-64
2021/08/30 07:45:09;;;;;;;25.63;22.97;;;18.40;99.90;;;;;;5032157;28;20449;-64
2021/08/30 07:47:36;;;;;;;27.70;24.87;;;18.50;99.90;;;;;;5031875;28;20484;-64
2021/08/30 07:50:05;;;;;;;27.80;24.77;;;18.70;99.90;;;;;;5032047;28;20949;-65
2021/08/30 07:52:32;;;;;;;28.30;25.23;;;18.60;99.90;;;;;;5031718;28;20532;-64
2021/08/30 07:54:59;;;;;;;30.60;27.60;;;18.60;99.90;;;;;;5031937;28;20461;-65
2021/08/30 07:57:25;;;;;;;35.27;28.50;;;18.60;99.90;;;;;;5031931;28;20803;-64
2021/08/30 07:59:52;;;;;;;27.37;24.87;;;18.70;99.90;;;;;;5032005;28;20449;-64
2021/08/30 08:02:20;;;;;;;31.87;26.93;;;18.50;99.90;;;;;;5031604;28;20478;-64
2021/08/30 08:04:47;;;;;;;30.00;26.67;;;18.40;99.90;;;;;;5031680;28;20441;-64
2021/08/30 08:07:13;;;;;;;30.10;26.63;;;18.40;99.90;;;;;;5031661;28;21014;-64
2021/08/30 08:09:40;;;;;;;30.70;27.60;;;18.50;99.90;;;;;;5031769;28;20825;-64
2021/08/30 08:12:08;;;;;;;29.43;26.30;;;18.80;99.90;;;;;;5031294;28;20469;-65
2021/08/30 08:14:35;;;;;;;30.03;26.83;;;19.10;99.90;;;;;;5031624;28;20495;-63
2021/08/30 08:17:02;;;;;;;28.60;24.90;;;19.00;99.90;;;;;;5031495;28;20502;-64
2021/08/30 08:19:30;;;;;;;25.90;23.20;;;19.00;99.90;;;;;;5031376;28;20445;-65
2021/08/30 08:21:57;;;;;;;25.53;23.03;;;18.90;99.90;;;;;;5031238;28;20849;-64
2021/08/30 08:24:24;;;;;;;25.17;22.50;;;18.80;99.90;;;;;;5031472;28;20451;-63
2021/08/30 08:26:51;;;;;;;23.77;21.37;;;18.80;99.90;;;;;;5031519;28;20507;-65
2021/08/30 08:29:18;;;;;;;23.43;21.03;;;18.80;99.90;;;;;;5031637;28;20445;-65
2021/08/30 08:31:45;;;;;;;24.57;22.20;;;18.80;99.90;;;;;;5030402;28;20480;-64
2021/08/30 08:34:11;;;;;;;22.73;20.40;;;18.80;99.90;;;;;;5031494;28;20923;-64
2021/08/30 08:36:40;;;;;;;24.33;22.10;;;18.80;99.90;;;;;;5031547;28;20445;-65
2021/08/30 08:39:07;;;;;;;27.10;23.03;;;18.70;99.90;;;;;;5031359;28;20866;-64
2021/08/30 08:41:36;;;;;;;24.10;21.60;;;18.80;99.90;;;;;;5031089;28;20473;-66
2021/08/30 08:44:06;;;;;;;25.10;22.80;;;18.80;99.90;;;;;;5031527;28;20872;-64
2021/08/30 08:46:35;;;;;;;24.53;21.97;;;18.70;99.90;;;;;;5031332;28;20530;-64
2021/08/30 08:49:02;;;;;;;22.53;20.57;;;18.80;99.90;;;;;;5031194;28;20460;-64
2021/08/30 08:51:29;;;;;;;26.40;21.87;;;18.70;99.90;;;;;;5030983;28;20476;-64
2021/08/30 08:53:58;;;;;;;24.70;22.40;;;18.90;99.90;;;;;;5031322;28;20445;-64
2021/08/30 08:56:27;;;;;;;25.27;22.77;;;19.20;99.90;;;;;;5031366;28;20445;-63
2021/08/30 08:58:54;;;;;;;24.10;21.97;;;19.30;99.90;;;;;;5031361;28;20451;-63
2021/08/30 09:01:24;;;;;;;23.23;20.97;;;19.50;99.90;;;;;;5030956;28;20461;-63
2021/08/30 09:03:55;;;;;;;22.70;20.40;;;19.80;99.90;;;;;;5031324;28;20800;-63
2021/08/30 09:06:27;;;;;;;28.50;24.10;;;20.10;99.90;;;;;;5031224;28;20480;-63
2021/08/30 09:08:58;;;;;;;24.20;21.87;;;20.20;99.90;;;;;;5031187;28;20475;-63
2021/08/30 09:11:34;;;;;;;26.43;24.00;;;20.10;99.90;;;;;;5030999;28;20490;-65
2021/08/30 09:14:01;;;;;;;26.60;24.20;;;19.90;99.90;;;;;;5031228;28;20467;-64
2021/08/30 09:16:28;;;;;;;23.50;21.00;;;19.60;99.90;;;;;;5030981;28;20950;-64
2021/08/30 09:19:04;;;;;;;24.87;22.87;;;19.60;99.90;;;;;;5031094;28;20842;-63
2021/08/30 09:21:31;;;;;;;23.13;21.23;;;19.40;99.90;;;;;;5030987;28;20476;-64
2021/08/30 09:24:10;;;;;;;23.90;21.90;;;19.50;99.90;;;;;;5030894;28;20957;-64
2021/08/30 09:26:44;;;;;;;23.30;20.97;;;19.40;99.90;;;;;;5031038;28;20480;-65
2021/08/30 09:29:15;;;;;;;23.63;21.20;;;19.50;99.90;;;;;;5030979;28;20445;-64
2021/08/30 09:31:42;;;;;;;23.17;21.23;;;19.50;99.90;;;;;;5030721;28;21045;-64
2021/08/30 09:34:12;;;;;;;23.13;21.23;;;19.60;99.90;;;;;;5030998;28;20449;-63
2021/08/30 09:36:42;;;;;;;23.03;21.03;;;19.50;99.90;;;;;;5031140;28;20861;-63
2021/08/30 09:39:10;;;;;;;22.37;20.13;;;19.50;99.90;;;;;;5030980;28;20480;-64
2021/08/30 09:41:42;;;;;;;23.90;21.70;;;19.50;99.90;;;;;;5030618;28;20465;-63
2021/08/30 09:44:09;;;;;;;23.93;21.77;;;19.90;99.90;;;;;;5033670;28;20455;-64
2021/08/30 09:46:35;;;;;;;21.07;19.27;;;20.30;99.90;;;;;;5034327;28;20476;-64
2021/08/30 09:49:06;;;;;;;22.53;20.77;;;20.40;99.90;;;;;;5034299;28;20444;-65
2021/08/30 09:51:37;;;;;;;24.93;22.47;;;20.40;99.90;;;;;;5034107;28;20468;-63
2021/08/30 09:54:04;;;;;;;23.50;21.70;;;20.40;99.90;;;;;;5034146;28;20517;-64
2021/08/30 09:56:36;;;;;;;24.33;22.23;;;20.90;99.90;;;;;;5034192;28;20437;-65
2021/08/30 09:59:05;;;;;;;25.33;23.43;;;21.30;99.90;;;;;;5034151;28;20449;-63
2021/08/30 10:01:35;;;;;;;25.57;23.10;;;21.60;99.90;;;;;;5033785;28;20804;-64
2021/08/30 10:04:02;;;;;;;27.50;25.13;;;21.70;99.90;;;;;;5034069;28;20467;-64
2021/08/30 10:06:29;;;;;;;28.37;26.27;;;21.90;99.90;;;;;;5033855;28;20445;-65
2021/08/30 10:08:57;;;;;;;27.00;25.23;;;21.60;99.90;;;;;;5033892;28;20444;-64
2021/08/30 10:11:25;;;;;;;28.93;26.63;;;21.40;99.90;;;;;;5033564;28;20457;-64
2021/08/30 10:13:53;;;;;;;29.70;27.60;;;21.20;99.90;;;;;;5033762;28;20814;-65
2021/08/30 10:16:20;;;;;;;29.80;27.70;;;21.00;99.90;;;;;;5033849;28;20448;-65
2021/08/30 10:18:48;;;;;;;28.90;27.00;;;20.70;99.90;;;;;;5033731;28;20850;-64
2021/08/30 10:21:16;;;;;;;34.80;32.37;;;20.50;99.90;;;;;;5033338;28;20599;-63
2021/08/30 10:23:43;;;;;;;27.40;25.33;;;20.50;99.90;;;;;;5033536;28;20472;-64
2021/08/30 10:26:13;;;;;;;29.03;26.73;;;20.40;99.90;;;;;;5033594;28;20453;-64
2021/08/30 10:28:41;;;;;;;28.10;25.80;;;20.20;99.90;;;;;;5033453;28;20881;-63
2021/08/30 10:31:21;;;;;;;29.77;27.30;;;20.10;99.90;;;;;;5033171;28;20465;-64
2021/08/30 10:33:52;;;;;;;27.00;25.10;;;19.90;99.90;;;;;;5033585;28;20445;-64
2021/08/30 10:36:21;;;;;;;28.33;26.00;;;19.90;99.90;;;;;;5033433;28;20441;-64
2021/08/30 10:38:59;;;;;;;27.50;25.40;;;19.70;99.90;;;;;;5033312;28;20456;-64
2021/08/30 10:41:35;;;;;;;28.20;26.03;;;19.60;99.90;;;;;;5033049;28;20465;-64
2021/08/30 10:44:13;;;;;;;26.33;24.13;;;19.60;99.90;;;;;;5033299;28;20463;-64
2021/08/30 10:46:43;;;;;;;26.33;24.33;;;19.60;99.90;;;;;;5033091;28;20457;-63
2021/08/30 10:49:13;;;;;;;26.57;24.47;;;19.60;99.90;;;;;;5033163;28;20481;-64
2021/08/30 10:51:40;;;;;;;26.30;24.40;;;19.80;99.90;;;;;;5032911;28;20823;-64
2021/08/30 10:54:09;;;;;;;25.63;23.73;;;20.00;99.90;;;;;;5032381;28;20452;-63
2021/08/30 10:56:37;;;;;;;25.93;24.00;;;20.10;99.90;;;;;;5032897;28;20476;-64
2021/08/30 10:59:06;;;;;;;26.93;24.87;;;20.20;99.90;;;;;;5032971;28;20444;-64
2021/08/30 11:01:34;;;;;;;27.80;25.70;;;20.30;99.90;;;;;;5032636;28;20476;-64
2021/08/30 11:04:03;;;;;;;28.03;25.97;;;20.40;99.90;;;;;;5032802;28;20961;-64
2021/08/30 11:06:30;;;;;;;26.97;25.17;;;20.60;99.90;;;;;;5032711;28;20499;-63
2021/08/30 11:08:57;;;;;;;29.90;27.70;;;20.80;99.90;;;;;;5032775;28;20435;-63
2021/08/30 11:11:25;;;;;;;28.20;26.20;;;20.90;99.90;;;;;;5032463;28;20830;-64
2021/08/30 11:14:04;;;;;;;28.60;26.60;;;21.00;99.90;;;;;;5032808;28;20440;-65
2021/08/30 11:16:33;;;;;;;28.07;26.00;;;20.90;99.90;;;;;;5032770;28;20938;-63
2021/08/30 11:19:01;;;;;;;28.03;26.00;;;21.00;99.90;;;;;;5032571;28;20445;-63
2021/08/30 11:21:35;;;;;;;27.23;25.43;;;21.20;99.90;;;;;;5051860;23;20482;-59
2021/08/30 11:24:02;;;;;;;27.00;25.00;;;21.50;99.90;;;;;;5020901;28;20449;-60
2021/08/30 11:26:29;;;;;;;29.07;26.77;;;21.70;99.90;;;;;;5012749;28;20446;-59
2021/08/30 11:28:56;;;;;;;27.03;25.27;;;21.80;99.90;;;;;;5012788;28;20505;-60
2021/08/30 11:31:24;;;;;;;29.67;27.77;;;21.90;99.90;;;;;;5012375;28;20998;-59
2021/08/30 11:33:51;;;;;;;26.97;24.93;;;22.20;99.90;;;;;;5012650;28;20450;-59
2021/08/30 11:36:17;;;;;;;29.37;27.40;;;22.30;99.90;;;;;;5012511;28;20943;-59
2021/08/30 11:38:54;;;;;;;30.17;28.20;;;22.20;99.90;;;;;;5012522;28;20442;-59
2021/08/30 11:41:21;;;;;;;29.10;27.10;;;22.20;99.90;;;;;;5012330;28;20793;-59
2021/08/30 11:43:48;;;;;;;29.67;27.77;;;22.40;99.90;;;;;;5012341;28;20958;-60
2021/08/30 11:46:15;;;;;;;29.30;27.30;;;22.50;99.90;;;;;;5012337;28;20446;-59
2021/08/30 11:48:42;;;;;;;29.50;27.63;;;22.70;99.90;;;;;;5012387;28;20477;-58
2021/08/30 11:51:09;;;;;;;28.97;27.07;;;22.60;99.90;;;;;;5011940;28;20453;-59
2021/08/30 11:53:37;;;;;;;29.13;27.23;;;22.50;99.90;;;;;;5012213;28;20442;-60
2021/08/30 11:56:05;;;;;;;30.37;28.30;;;22.60;99.90;;;;;;5012147;28;20532;-60
2021/08/30 11:58:34;;;;;;;29.77;27.67;;;22.70;99.90;;;;;;5012154;28;20464;-60
2021/08/30 12:01:02;;;;;;;28.63;26.90;;;23.00;99.90;;;;;;5011992;28;20446;-58
2021/08/30 12:03:29;;;;;;;29.20;27.43;;;23.20;99.90;;;;;;5012008;28;20485;-60
2021/08/30 12:05:55;;;;;;;30.63;28.80;;;23.30;99.90;;;;;;5012056;28;21012;-59
2021/08/30 12:08:23;;;;;;;31.53;29.50;;;23.60;99.90;;;;;;5011882;28;20827;-60
2021/08/30 12:10:50;;;;;;;30.43;28.53;;;24.00;99.90;;;;;;5012025;28;20454;-59
2021/08/30 12:13:33;;;;;;;31.10;29.20;;;23.90;99.90;;;;;;5011714;28;20466;-60
2021/08/30 12:16:00;;;;;;;30.40;28.50;;;24.20;99.90;;;;;;5011953;28;20450;-57
2021/08/30 12:18:26;;;;;;;30.30;28.53;;;24.20;99.90;;;;;;5011869;28;20453;-61
2021/08/30 12:20:59;;;;;;;30.37;28.37;;;24.40;99.90;;;;;;5011816;28;20461;-59
2021/08/30 12:23:26;;;;;;;29.63;28.03;;;24.30;99.90;;;;;;5011879;28;20442;-60
2021/08/30 12:25:54;;;;;;;30.13;28.10;;;24.30;99.90;;;;;;5011684;28;20791;-61
2021/08/30 12:28:22;;;;;;;30.33;28.50;;;24.50;99.90;;;;;;5011803;28;20564;-60
2021/08/30 12:30:51;;;;;;;30.00;28.47;;;24.70;99.90;;;;;;5011872;28;20552;-61
2021/08/30 12:33:20;;;;;;;31.27;29.47;;;25.30;99.90;;;;;;5011433;28;20461;-58
2021/08/30 12:35:48;;;;;;;32.90;31.00;;;26.80;99.90;;;;;;5011637;28;20473;-61